Time,TemperatureF,DewpointF,PressureIn,WindDirection,WindDirectionDegrees,WindSpeedMPH,WindSpeedGustMPH,Humidity,HourlyPrecipIn,Conditions,Clouds,dailyrainin,SoftwareType,DateUTC
2013-02-07 00:02:00,18.0,16.0,30.13,SE,135,1.0,4.0,90,-99.99,,,-99.99,,2013-02-07 05:02:00,
2013-02-07 00:12:00,18.0,16.0,30.13,SE,135,1.0,4.0,90,-99.99,,,-99.99,,2013-02-07 05:12:00,
2013-02-07 00:21:00,18.0,16.0,30.14,SE,135,1.0,2.0,90,-99.99,,,-99.99,,2013-02-07 05:21:00,
2013-02-07 00:32:00,18.0,16.0,30.14,SE,145,1.0,3.0,90,-99.99,,,-99.99,,2013-02-07 05:32:00,
2013-02-07 00:42:00,18.0,16.0,30.14,SE,145,1.0,3.0,90,-99.99,,,-99.99,,2013-02-07 05:42:00,
2013-02-07 00:52:00,18.0,16.0,30.14,SE,140,1.0,4.0,90,-99.99,,,-99.99,,2013-02-07 05:52:00,
2013-02-07 01:02:00,18.0,16.0,30.14,SSE,155,1.0,3.0,90,-99.99,,,-99.99,,2013-02-07 06:02:00,
2013-02-07 01:11:00,18.0,16.0,30.14,SSE,155,1.0,3.0,90,-99.99,,,-99.99,,2013-02-07 06:11:00,
2013-02-07 01:22:00,18.0,16.0,30.15,NE,50,1.0,1.0,90,-99.99,,,-99.99,,2013-02-07 06:22:00,
2013-02-07 01:32:00,18.0,15.0,30.15,ENE,75,1.0,4.0,90,-99.99,,,-99.99,,2013-02-07 06:32:00,
2013-02-07 01:43:00,18.0,15.0,30.15,ENE,75,1.0,4.0,90,-99.99,,,-99.99,,2013-02-07 06:43:00,
2013-02-07 01:52:00,18.0,15.0,30.15,East,95,4.0,5.0,90,-99.99,,,-99.99,,2013-02-07 06:52:00,
2013-02-07 02:01:00,18.0,15.0,30.15,ESE,110,2.0,4.0,90,-99.99,,,-99.99,,2013-02-07 07:01:00,
2013-02-07 02:11:00,18.0,15.0,30.15,ESE,110,2.0,4.0,90,-99.99,,,-99.99,,2013-02-07 07:11:00,
2013-02-07 02:22:00,18.0,15.0,30.14,ESE,110,3.0,5.0,90,-99.99,,,-99.99,,2013-02-07 07:22:00,
2013-02-07 02:32:00,18.0,15.0,30.14,ESE,120,4.0,7.0,90,-99.99,,,-99.99,,2013-02-07 07:32:00,
2013-02-07 02:42:00,18.0,15.0,30.14,ESE,120,4.0,7.0,90,-99.99,,,-99.99,,2013-02-07 07:42:00,
2013-02-07 02:52:00,18.0,16.0,30.15,SE,140,1.0,3.0,90,-99.99,,,-99.99,,2013-02-07 07:52:00,
2013-02-07 03:01:00,18.0,16.0,30.15,SE,140,1.0,3.0,90,-99.99,,,-99.99,,2013-02-07 08:01:00,
2013-02-07 03:11:00,18.0,16.0,30.15,SE,140,1.0,3.0,90,-99.99,,,-99.99,,2013-02-07 08:11:00,
2013-02-07 03:21:00,18.0,16.0,30.15,West,260,0.0,3.0,90,-99.99,,,-99.99,,2013-02-07 08:21:00,
2013-02-07 03:32:00,18.0,16.0,30.15,SSE,150,2.0,4.0,90,-99.99,,,-99.99,,2013-02-07 08:32:00,
2013-02-07 03:42:00,18.0,16.0,30.15,SSE,150,2.0,4.0,90,-99.99,,,-99.99,,2013-02-07 08:42:00,
2013-02-07 03:52:00,18.0,16.0,30.14,SE,130,3.0,4.0,90,-99.99,,,-99.99,,2013-02-07 08:52:00,
2013-02-07 04:02:00,18.0,16.0,30.14,SE,130,3.0,4.0,90,-99.99,,,-99.99,,2013-02-07 09:02:00,
2013-02-07 04:11:00,18.0,16.0,30.14,SE,130,3.0,4.0,90,-99.99,,,-99.99,,2013-02-07 09:11:00,
2013-02-07 04:21:00,18.0,16.0,30.14,SSE,165,2.0,5.0,90,-99.99,,,-99.99,,2013-02-07 09:21:00,
2013-02-07 04:32:00,18.0,16.0,30.13,SE,135,0.0,4.0,90,-99.99,,,-99.99,,2013-02-07 09:32:00,
2013-02-07 04:41:00,18.0,16.0,30.13,SE,135,0.0,4.0,90,-99.99,,,-99.99,,2013-02-07 09:41:00,
2013-02-07 04:52:00,18.0,16.0,30.13,East,95,1.0,4.0,90,-99.99,,,-99.99,,2013-02-07 09:52:00,
2013-02-07 05:02:00,18.0,16.0,30.13,East,95,1.0,4.0,90,-99.99,,,-99.99,,2013-02-07 10:02:00,
2013-02-07 05:11:00,18.0,16.0,30.13,East,95,1.0,4.0,90,-99.99,,,-99.99,,2013-02-07 10:11:00,
2013-02-07 05:22:00,18.0,16.0,30.12,SE,135,1.0,2.0,90,-99.99,,,-99.99,,2013-02-07 10:22:00,
2013-02-07 05:32:00,18.0,16.0,30.13,SE,135,1.0,1.0,90,-99.99,,,-99.99,,2013-02-07 10:32:00,
2013-02-07 05:42:00,18.0,16.0,30.13,SE,135,1.0,1.0,90,-99.99,,,-99.99,,2013-02-07 10:42:00,
2013-02-07 05:51:00,18.0,16.0,30.12,ESE,110,2.0,3.0,90,-99.99,,,-99.99,,2013-02-07 10:51:00,
2013-02-07 06:01:00,18.0,16.0,30.12,NE,35,1.0,3.0,90,-99.99,,,-99.99,,2013-02-07 11:01:00,
2013-02-07 06:11:00,18.0,16.0,30.12,NE,35,1.0,3.0,90,-99.99,,,-99.99,,2013-02-07 11:11:00,
2013-02-07 06:22:00,18.0,16.0,30.12,North,5,1.0,3.0,90,-99.99,,,-99.99,,2013-02-07 11:22:00,
2013-02-07 06:32:00,18.0,16.0,30.12,NNE,15,1.0,4.0,90,-99.99,,,-99.99,,2013-02-07 11:32:00,
2013-02-07 06:44:00,18.0,16.0,30.12,NNE,15,1.0,4.0,90,-99.99,,,-99.99,,2013-02-07 11:44:00,
2013-02-07 06:52:00,19.0,16.0,30.12,NNE,25,1.0,4.0,90,-99.99,,,-99.99,,2013-02-07 11:52:00,
2013-02-07 07:02:00,19.0,17.0,30.11,NNE,25,1.0,4.0,90,-99.99,,,-99.99,,2013-02-07 12:02:00,
2013-02-07 07:11:00,19.0,17.0,30.11,NNE,25,1.0,4.0,90,-99.99,,,-99.99,,2013-02-07 12:11:00,
2013-02-07 07:22:00,19.0,17.0,30.11,NNE,20,1.0,4.0,90,-99.99,,,-99.99,,2013-02-07 12:22:00,
2013-02-07 07:33:00,19.0,17.0,30.11,NNE,20,1.0,2.0,90,-99.99,,,-99.99,,2013-02-07 12:33:00,
2013-02-07 07:42:00,19.0,17.0,30.11,NNE,20,1.0,2.0,90,-99.99,,,-99.99,,2013-02-07 12:42:00,
2013-02-07 07:52:00,19.0,17.0,30.12,NE,55,1.0,4.0,90,-99.99,,,-99.99,,2013-02-07 12:52:00,
2013-02-07 08:03:00,19.0,16.0,30.12,East,95,5.0,8.0,89,-99.99,,,-99.99,,2013-02-07 13:03:00,
2013-02-07 08:12:00,19.0,16.0,30.12,East,95,5.0,8.0,89,-99.99,,,-99.99,,2013-02-07 13:12:00,
2013-02-07 08:22:00,19.0,16.0,30.12,ESE,105,5.0,8.0,89,-99.99,,,-99.99,,2013-02-07 13:22:00,
2013-02-07 08:32:00,18.0,16.0,30.12,East,100,3.0,9.0,88,-99.99,,,-99.99,,2013-02-07 13:32:00,
2013-02-07 08:42:00,18.0,16.0,30.12,East,100,3.0,9.0,88,-99.99,,,-99.99,,2013-02-07 13:42:00,
2013-02-07 08:52:00,18.0,16.0,30.13,ESE,110,4.0,6.0,89,-99.99,,,-99.99,,2013-02-07 13:52:00,
2013-02-07 09:01:00,18.0,16.0,30.13,East,95,2.0,5.0,89,-99.99,,,-99.99,,2013-02-07 14:01:00,
2013-02-07 09:11:00,18.0,16.0,30.13,East,95,2.0,5.0,89,-99.99,,,-99.99,,2013-02-07 14:11:00,
2013-02-07 09:22:00,18.0,16.0,30.14,East,95,2.0,4.0,89,-99.99,,,-99.99,,2013-02-07 14:22:00,
2013-02-07 09:32:00,17.0,15.0,30.14,ESE,105,6.0,11.0,89,-99.99,,,-99.99,,2013-02-07 14:32:00,
2013-02-07 09:42:00,17.0,15.0,30.14,ESE,105,6.0,11.0,89,-99.99,,,-99.99,,2013-02-07 14:42:00,
2013-02-07 09:52:00,18.0,15.0,30.14,SE,125,4.0,7.0,90,-99.99,,,-99.99,,2013-02-07 14:52:00,
2013-02-07 10:02:00,18.0,15.0,30.14,SE,125,4.0,7.0,90,-99.99,,,-99.99,,2013-02-07 15:02:00,
2013-02-07 10:22:00,18.0,15.0,30.15,East,85,2.0,4.0,90,-99.99,,,-99.99,,2013-02-07 15:22:00,
2013-02-07 10:32:00,17.0,15.0,30.15,East,95,2.0,5.0,91,-99.99,,,-99.99,,2013-02-07 15:32:00,
2013-02-07 10:42:00,17.0,15.0,30.15,East,95,2.0,5.0,91,-99.99,,,-99.99,,2013-02-07 15:42:00,
2013-02-07 10:52:00,17.0,15.0,30.16,East,80,4.0,6.0,91,-99.99,,,-99.99,,2013-02-07 15:52:00,
2013-02-07 11:01:00,18.0,15.0,30.16,NE,50,4.0,6.0,91,-99.99,,,-99.99,,2013-02-07 16:01:00,
2013-02-07 11:11:00,18.0,15.0,30.16,NE,50,4.0,6.0,91,-99.99,,,-99.99,,2013-02-07 16:11:00,
2013-02-07 11:21:00,18.0,15.0,30.16,ENE,65,2.0,4.0,90,-99.99,,,-99.99,,2013-02-07 16:21:00,
2013-02-07 11:32:00,18.0,15.0,30.16,ENE,70,2.0,6.0,90,-99.99,,,-99.99,,2013-02-07 16:32:00,
2013-02-07 11:42:00,18.0,15.0,30.16,ENE,70,2.0,6.0,90,-99.99,,,-99.99,,2013-02-07 16:42:00,
2013-02-07 11:52:00,18.0,16.0,30.16,NE,45,3.0,9.0,90,-99.99,,,-99.99,,2013-02-07 16:52:00,
2013-02-07 12:01:00,18.0,16.0,30.16,NE,45,3.0,9.0,90,-99.99,,,-99.99,,2013-02-07 17:01:00,
2013-02-07 12:11:00,18.0,16.0,30.16,NE,45,3.0,9.0,90,-99.99,,,-99.99,,2013-02-07 17:11:00,
2013-02-07 12:21:00,18.0,15.0,30.16,East,85,4.0,11.0,89,-99.99,,,-99.99,,2013-02-07 17:21:00,
2013-02-07 12:32:00,18.0,15.0,30.16,East,85,6.0,9.0,88,-99.99,,,-99.99,,2013-02-07 17:32:00,
2013-02-07 12:43:00,18.0,15.0,30.16,East,85,6.0,9.0,88,-99.99,,,-99.99,,2013-02-07 17:43:00,
2013-02-07 12:52:00,19.0,15.0,30.15,East,85,4.0,9.0,87,-99.99,,,-99.99,,2013-02-07 17:52:00,
2013-02-07 13:01:00,19.0,15.0,30.15,East,85,4.0,9.0,87,-99.99,,,-99.99,,2013-02-07 18:01:00,
2013-02-07 13:11:00,19.0,15.0,30.15,East,85,4.0,9.0,87,-99.99,,,-99.99,,2013-02-07 18:11:00,
2013-02-07 13:23:00,19.0,16.0,30.16,ENE,70,3.0,6.0,87,-99.99,,,-99.99,,2013-02-07 18:23:00,
2013-02-07 13:32:00,19.0,16.0,30.16,ENE,65,4.0,6.0,86,-99.99,,,-99.99,,2013-02-07 18:32:00,
2013-02-07 13:42:00,19.0,16.0,30.16,ENE,65,4.0,6.0,86,-99.99,,,-99.99,,2013-02-07 18:42:00,
2013-02-07 13:52:00,19.0,16.0,30.16,NE,35,2.0,5.0,86,-99.99,,,-99.99,,2013-02-07 18:52:00,
2013-02-07 14:01:00,19.0,16.0,30.14,ENE,65,3.0,6.0,85,-99.99,,,-99.99,,2013-02-07 19:01:00,
2013-02-07 14:11:00,19.0,16.0,30.14,ENE,65,3.0,6.0,85,-99.99,,,-99.99,,2013-02-07 19:11:00,
2013-02-07 14:22:00,20.0,16.0,30.14,NE,50,4.0,7.0,85,-99.99,,,-99.99,,2013-02-07 19:22:00,
2013-02-07 14:32:00,20.0,16.0,30.13,NE,35,4.0,8.0,84,-99.99,,,-99.99,,2013-02-07 19:32:00,
2013-02-07 14:42:00,20.0,16.0,30.13,NE,35,4.0,8.0,84,-99.99,,,-99.99,,2013-02-07 19:42:00,
2013-02-07 14:52:00,20.0,16.0,30.13,NE,55,5.0,10.0,84,-99.99,,,-99.99,,2013-02-07 19:52:00,
2013-02-07 15:01:00,20.0,16.0,30.13,ENE,70,6.0,10.0,84,-99.99,,,-99.99,,2013-02-07 20:01:00,
2013-02-07 15:11:00,20.0,16.0,30.13,ENE,70,6.0,10.0,84,-99.99,,,-99.99,,2013-02-07 20:11:00,
2013-02-07 15:22:00,20.0,16.0,30.13,NNE,15,2.0,8.0,84,-99.99,,,-99.99,,2013-02-07 20:22:00,
2013-02-07 15:32:00,20.0,16.0,30.13,NE,45,6.0,10.0,85,-99.99,,,-99.99,,2013-02-07 20:32:00,
2013-02-07 15:42:00,20.0,16.0,30.13,NE,45,6.0,10.0,85,-99.99,,,-99.99,,2013-02-07 20:42:00,
2013-02-07 15:52:00,20.0,16.0,30.12,ENE,65,6.0,14.0,85,-99.99,,,-99.99,,2013-02-07 20:52:00,
2013-02-07 16:02:00,20.0,16.0,30.12,ENE,65,6.0,14.0,85,-99.99,,,-99.99,,2013-02-07 21:02:00,
2013-02-07 16:11:00,20.0,16.0,30.12,ENE,65,6.0,14.0,85,-99.99,,,-99.99,,2013-02-07 21:11:00,
2013-02-07 16:21:00,20.0,17.0,30.11,ENE,70,6.0,14.0,86,-99.99,,,-99.99,,2013-02-07 21:21:00,
2013-02-07 16:32:00,20.0,17.0,30.12,NE,45,5.0,14.0,86,-99.99,,,-99.99,,2013-02-07 21:32:00,
2013-02-07 16:42:00,20.0,17.0,30.12,NE,45,5.0,14.0,86,-99.99,,,-99.99,,2013-02-07 21:42:00,
2013-02-07 16:52:00,21.0,17.0,30.12,NE,55,6.0,14.0,86,-99.99,,,-99.99,,2013-02-07 21:52:00,
2013-02-07 17:02:00,21.0,17.0,30.12,East,90,4.0,14.0,85,-99.99,,,-99.99,,2013-02-07 22:02:00,
2013-02-07 17:11:00,21.0,17.0,30.12,East,90,4.0,14.0,85,-99.99,,,-99.99,,2013-02-07 22:11:00,
2013-02-07 17:21:00,21.0,17.0,30.12,ENE,65,6.0,16.0,85,-99.99,,,-99.99,,2013-02-07 22:21:00,
2013-02-07 17:32:00,21.0,17.0,30.12,ENE,65,7.0,15.0,85,-99.99,,,-99.99,,2013-02-07 22:32:00,
2013-02-07 17:42:00,21.0,17.0,30.12,ENE,65,7.0,15.0,85,-99.99,,,-99.99,,2013-02-07 22:42:00,
2013-02-07 17:51:00,21.0,17.0,30.12,NE,55,6.0,11.0,85,-99.99,,,-99.99,,2013-02-07 22:51:00,
2013-02-07 18:01:00,21.0,17.0,30.13,NE,50,6.0,11.0,85,-99.99,,,-99.99,,2013-02-07 23:01:00,
2013-02-07 18:11:00,21.0,17.0,30.13,NE,50,6.0,11.0,85,-99.99,,,-99.99,,2013-02-07 23:11:00,
2013-02-07 18:21:00,21.0,17.0,30.13,NE,40,5.0,11.0,85,-99.99,,,-99.99,,2013-02-07 23:21:00,
2013-02-07 18:32:00,21.0,18.0,30.13,East,80,4.0,11.0,85,-99.99,,,-99.99,,2013-02-07 23:32:00,
2013-02-07 18:42:00,21.0,18.0,30.13,East,80,4.0,11.0,85,-99.99,,,-99.99,,2013-02-07 23:42:00,
2013-02-07 18:52:00,21.0,18.0,30.13,East,80,4.0,10.0,85,-99.99,,,-99.99,,2013-02-07 23:52:00,
2013-02-07 19:01:00,22.0,18.0,30.14,ENE,75,6.0,11.0,85,-99.99,,,-99.99,,2013-02-08 00:01:00,
2013-02-07 19:11:00,22.0,18.0,30.14,ENE,75,6.0,11.0,85,-99.99,,,-99.99,,2013-02-08 00:11:00,
2013-02-07 19:21:00,22.0,18.0,30.14,East,80,4.0,13.0,86,-99.99,,,-99.99,,2013-02-08 00:21:00,
2013-02-07 19:32:00,22.0,18.0,30.14,ENE,60,5.0,14.0,86,-99.99,,,-99.99,,2013-02-08 00:32:00,
2013-02-07 19:42:00,22.0,18.0,30.14,ENE,60,5.0,14.0,86,-99.99,,,-99.99,,2013-02-08 00:42:00,
2013-02-07 19:52:00,22.0,18.0,30.14,ENE,65,5.0,11.0,86,-99.99,,,-99.99,,2013-02-08 00:52:00,
2013-02-07 20:01:00,22.0,18.0,30.14,East,85,4.0,7.0,86,-99.99,,,-99.99,,2013-02-08 01:01:00,
2013-02-07 20:11:00,22.0,18.0,30.14,East,85,4.0,7.0,86,-99.99,,,-99.99,,2013-02-08 01:11:00,
2013-02-07 20:21:00,22.0,19.0,30.14,NE,35,4.0,11.0,86,-99.99,,,-99.99,,2013-02-08 01:21:00,
2013-02-07 20:31:00,24.0,18.0,30.14,NNE,30,12.0,24.0,79,-99.99,,,-99.99,,2013-02-08 01:31:00,
2013-02-07 20:41:00,24.0,18.0,30.14,NNE,30,12.0,24.0,79,-99.99,,,-99.99,,2013-02-08 01:41:00,
2013-02-07 20:51:00,24.0,17.0,30.14,NE,45,9.0,24.0,75,-99.99,,,-99.99,,2013-02-08 01:51:00,
2013-02-07 21:01:00,24.0,17.0,30.14,NE,45,9.0,24.0,75,-99.99,,,-99.99,,2013-02-08 02:01:00,
2013-02-07 21:11:00,24.0,17.0,30.14,NE,45,9.0,24.0,75,-99.99,,,-99.99,,2013-02-08 02:11:00,
2013-02-07 21:21:00,24.0,17.0,30.14,NNE,30,10.0,20.0,74,-99.99,,,-99.99,,2013-02-08 02:21:00,
2013-02-07 21:32:00,24.0,17.0,30.14,NE,45,10.0,21.0,74,-99.99,,,-99.99,,2013-02-08 02:32:00,
2013-02-07 21:42:00,24.0,17.0,30.14,NE,45,10.0,21.0,74,-99.99,,,-99.99,,2013-02-08 02:42:00,
2013-02-07 21:52:00,24.0,16.0,30.14,NE,40,9.0,21.0,74,-99.99,,,-99.99,,2013-02-08 02:52:00,
2013-02-07 22:02:00,24.0,16.0,30.14,NE,50,11.0,21.0,73,-99.99,,,-99.99,,2013-02-08 03:02:00,
2013-02-07 22:12:00,24.0,16.0,30.14,NE,50,11.0,21.0,73,-99.99,,,-99.99,,2013-02-08 03:12:00,
2013-02-07 22:22:00,24.0,16.0,30.15,North,10,7.0,19.0,72,-99.99,,,-99.99,,2013-02-08 03:22:00,
2013-02-07 22:32:00,24.0,16.0,30.15,NNE,15,8.0,22.0,72,-99.99,,,-99.99,,2013-02-08 03:32:00,
2013-02-07 22:42:00,24.0,16.0,30.15,NNE,15,8.0,22.0,72,-99.99,,,-99.99,,2013-02-08 03:42:00,
2013-02-07 22:52:00,23.0,16.0,30.15,NNE,30,7.0,16.0,73,-99.99,,,-99.99,,2013-02-08 03:52:00,
2013-02-07 23:02:00,23.0,16.0,30.15,NE,45,9.0,21.0,74,-99.99,,,-99.99,,2013-02-08 04:02:00,
2013-02-07 23:11:00,23.0,16.0,30.15,NE,45,9.0,21.0,74,-99.99,,,-99.99,,2013-02-08 04:11:00,
2013-02-07 23:21:00,23.0,16.0,30.15,NNE,25,6.0,16.0,74,-99.99,,,-99.99,,2013-02-08 04:21:00,
2013-02-07 23:32:00,23.0,16.0,30.16,NNE,30,7.0,19.0,74,-99.99,,,-99.99,,2013-02-08 04:32:00,
2013-02-07 23:42:00,23.0,16.0,30.16,NNE,30,7.0,19.0,74,-99.99,,,-99.99,,2013-02-08 04:42:00,
2013-02-07 23:51:00,23.0,16.0,30.15,NE,55,8.0,16.0,74,-99.99,,,-99.99,,2013-02-08 04:51:00,